sensor_id;sensor_type;location;lat;lon;timestamp;temperature;humidity
43679;DHT22;29279;50.858;4.392;2023-09-19T00:02:23;16.20;99.90
43679;DHT22;29279;50.858;4.392;2023-09-19T00:04:49;16.10;99.90
43679;DHT22;29279;50.858;4.392;2023-09-19T00:07:15;16.20;99.90
43679;DHT22;29279;50.858;4.392;2023-09-19T00:09:41;16.30;99.90
43679;DHT22;29279;50.858;4.392;2023-09-19T00:12:09;16.30;99.90
43679;DHT22;29279;50.858;4.392;2023-09-19T00:14:35;16.30;99.90
43679;DHT22;29279;50.858;4.392;2023-09-19T00:17:04;16.20;99.90
43679;DHT22;29279;50.858;4.392;2023-09-19T00:19:36;16.30;99.90
43679;DHT22;29279;50.858;4.392;2023-09-19T00:22:03;16.20;99.90
43679;DHT22;29279;50.858;4.392;2023-09-19T00:24:29;16.10;99.90
43679;DHT22;29279;50.858;4.392;2023-09-19T00:26:56;16.10;99.90
43679;DHT22;29279;50.858;4.392;2023-09-19T00:29:25;16.10;99.90
43679;DHT22;29279;50.858;4.392;2023-09-19T00:31:55;16.10;99.90
43679;DHT22;29279;50.858;4.392;2023-09-19T00:34:21;16.10;99.90
43679;DHT22;29279;50.858;4.392;2023-09-19T00:36:47;16.00;99.90
43679;DHT22;29279;50.858;4.392;2023-09-19T00:39:12;16.00;99.90
43679;DHT22;29279;50.858;4.392;2023-09-19T00:41:38;16.00;99.90
43679;DHT22;29279;50.858;4.392;2023-09-19T00:44:04;16.00;99.90
43679;DHT22;29279;50.858;4.392;2023-09-19T00:46:31;15.90;99.90
43679;DHT22;29279;50.858;4.392;2023-09-19T00:48:58;16.00;99.90
43679;DHT22;29279;50.858;4.392;2023-09-19T00:51:25;16.00;99.90
43679;DHT22;29279;50.858;4.392;2023-09-19T00:53:52;16.00;99.90
43679;DHT22;29279;50.858;4.392;2023-09-19T00:56:18;15.90;99.90
43679;DHT22;29279;50.858;4.392;2023-09-19T00:58:47;15.90;99.90
43679;DHT22;29279;50.858;4.392;2023-09-19T01:01:13;15.80;99.90
43679;DHT22;29279;50.858;4.392;2023-09-19T01:03:44;15.80;99.90
43679;DHT22;29279;50.858;4.392;2023-09-19T01:06:10;15.80;99.90
43679;DHT22;29279;50.858;4.392;2023-09-19T01:08:36;15.80;99.90
43679;DHT22;29279;50.858;4.392;2023-09-19T01:16:53;15.80;99.90
43679;DHT22;29279;50.858;4.392;2023-09-19T01:30:32;15.60;99.90
43679;DHT22;29279;50.858;4.392;2023-09-19T01:33:01;15.70;99.90
43679;DHT22;29279;50.858;4.392;2023-09-19T01:35:29;15.70;99.90
43679;DHT22;29279;50.858;4.392;2023-09-19T01:37:54;15.70;99.90
43679;DHT22;29279;50.858;4.392;2023-09-19T01:40:21;15.70;99.90
43679;DHT22;29279;50.858;4.392;2023-09-19T01:51:06;15.80;99.90
43679;DHT22;29279;50.858;4.392;2023-09-19T01:53:51;15.80;99.90
43679;DHT22;29279;50.858;4.392;2023-09-19T01:56:32;15.80;99.90
43679;DHT22;29279;50.858;4.392;2023-09-19T01:59:10;15.80;99.90
43679;DHT22;29279;50.858;4.392;2023-09-19T02:01:37;15.80;99.90
43679;DHT22;29279;50.858;4.392;2023-09-19T02:04:03;15.90;99.90
43679;DHT22;29279;50.858;4.392;2023-09-19T02:06:29;15.90;99.90
43679;DHT22;29279;50.858;4.392;2023-09-19T02:08:55;15.90;99.90
43679;DHT22;29279;50.858;4.392;2023-09-19T02:11:21;15.90;99.90
43679;DHT22;29279;50.858;4.392;2023-09-19T02:13:46;15.80;99.90
43679;DHT22;29279;50.858;4.392;2023-09-19T02:16:12;15.90;99.90
43679;DHT22;29279;50.858;4.392;2023-09-19T02:18:38;15.80;99.90
43679;DHT22;29279;50.858;4.392;2023-09-19T02:21:04;15.80;99.90
43679;DHT22;29279;50.858;4.392;2023-09-19T02:23:32;15.80;99.90
43679;DHT22;29279;50.858;4.392;2023-09-19T02:25:58;15.80;99.90
43679;DHT22;29279;50.858;4.392;2023-09-19T02:28:26;15.90;99.90
43679;DHT22;29279;50.858;4.392;2023-09-19T02:30:55;15.80;99.90
43679;DHT22;29279;50.858;4.392;2023-09-19T02:33:21;15.80;99.90
43679;DHT22;29279;50.858;4.392;2023-09-19T02:35:47;15.80;99.90
43679;DHT22;29279;50.858;4.392;2023-09-19T02:38:14;15.70;99.90
43679;DHT22;29279;50.858;4.392;2023-09-19T02:40:43;15.80;99.90
43679;DHT22;29279;50.858;4.392;2023-09-19T02:43:09;15.80;99.90
43679;DHT22;29279;50.858;4.392;2023-09-19T02:45:35;15.80;99.90
43679;DHT22;29279;50.858;4.392;2023-09-19T02:48:01;15.80;99.90
43679;DHT22;29279;50.858;4.392;2023-09-19T02:50:27;15.80;99.90
43679;DHT22;29279;50.858;4.392;2023-09-19T02:52:53;15.70;99.90
43679;DHT22;29279;50.858;4.392;2023-09-19T02:55:19;15.60;99.90
43679;DHT22;29279;50.858;4.392;2023-09-19T02:57:52;15.70;99.90
43679;DHT22;29279;50.858;4.392;2023-09-19T03:00:20;15.80;99.90
43679;DHT22;29279;50.858;4.392;2023-09-19T03:02:56;15.80;99.90
43679;DHT22;29279;50.858;4.392;2023-09-19T03:05:23;15.80;99.90
43679;DHT22;29279;50.858;4.392;2023-09-19T03:07:49;15.70;99.90
43679;DHT22;29279;50.858;4.392;2023-09-19T03:10:21;15.60;99.90
43679;DHT22;29279;50.858;4.392;2023-09-19T03:12:47;15.60;99.90
43679;DHT22;29279;50.858;4.392;2023-09-19T03:15:14;15.70;99.90
43679;DHT22;29279;50.858;4.392;2023-09-19T03:17:44;15.80;99.90
43679;DHT22;29279;50.858;4.392;2023-09-19T03:20:11;15.90;99.90
43679;DHT22;29279;50.858;4.392;2023-09-19T03:22:38;15.90;99.90
43679;DHT22;29279;50.858;4.392;2023-09-19T03:25:06;15.80;99.90
43679;DHT22;29279;50.858;4.392;2023-09-19T03:27:38;15.60;99.90
43679;DHT22;29279;50.858;4.392;2023-09-19T03:30:05;15.50;99.90
43679;DHT22;29279;50.858;4.392;2023-09-19T03:32:34;15.40;99.90
43679;DHT22;29279;50.858;4.392;2023-09-19T03:35:01;15.30;99.90
43679;DHT22;29279;50.858;4.392;2023-09-19T03:37:26;15.30;99.90
43679;DHT22;29279;50.858;4.392;2023-09-19T03:39:52;15.30;99.90
43679;DHT22;29279;50.858;4.392;2023-09-19T03:42:17;15.30;99.90
43679;DHT22;29279;50.858;4.392;2023-09-19T03:44:50;15.30;99.90
43679;DHT22;29279;50.858;4.392;2023-09-19T03:47:17;15.30;99.90
43679;DHT22;29279;50.858;4.392;2023-09-19T03:49:44;15.20;99.90
43679;DHT22;29279;50.858;4.392;2023-09-19T03:52:10;15.20;99.90
43679;DHT22;29279;50.858;4.392;2023-09-19T03:54:35;15.20;99.90
43679;DHT22;29279;50.858;4.392;2023-09-19T03:57:01;15.40;99.90
43679;DHT22;29279;50.858;4.392;2023-09-19T03:59:29;15.30;99.90
43679;DHT22;29279;50.858;4.392;2023-09-19T04:01:55;15.20;99.90
43679;DHT22;29279;50.858;4.392;2023-09-19T04:04:22;15.20;99.90
43679;DHT22;29279;50.858;4.392;2023-09-19T04:06:50;15.10;99.90
43679;DHT22;29279;50.858;4.392;2023-09-19T04:09:16;15.10;99.90
43679;DHT22;29279;50.858;4.392;2023-09-19T04:11:42;15.00;99.90
43679;DHT22;29279;50.858;4.392;2023-09-19T04:14:07;15.00;99.90
43679;DHT22;29279;50.858;4.392;2023-09-19T04:16:33;15.00;99.90
43679;DHT22;29279;50.858;4.392;2023-09-19T04:18:59;14.90;99.90
43679;DHT22;29279;50.858;4.392;2023-09-19T04:21:24;14.90;99.90
43679;DHT22;29279;50.858;4.392;2023-09-19T04:23:51;14.90;99.90
43679;DHT22;29279;50.858;4.392;2023-09-19T04:26:17;15.00;99.90
43679;DHT22;29279;50.858;4.392;2023-09-19T04:28:42;15.10;99.90
43679;DHT22;29279;50.858;4.392;2023-09-19T04:31:09;15.10;99.90
43679;DHT22;29279;50.858;4.392;2023-09-19T04:33:35;15.10;99.90
43679;DHT22;29279;50.858;4.392;2023-09-19T04:36:02;15.00;99.90
43679;DHT22;29279;50.858;4.392;2023-09-19T04:38:28;15.10;99.90
43679;DHT22;29279;50.858;4.392;2023-09-19T04:40:57;15.10;99.90
43679;DHT22;29279;50.858;4.392;2023-09-19T04:43:24;15.00;99.90
43679;DHT22;29279;50.858;4.392;2023-09-19T04:45:50;14.90;99.90
43679;DHT22;29279;50.858;4.392;2023-09-19T04:48:16;14.90;99.90
43679;DHT22;29279;50.858;4.392;2023-09-19T04:50:42;14.80;99.90
43679;DHT22;29279;50.858;4.392;2023-09-19T04:53:09;14.80;99.90
43679;DHT22;29279;50.858;4.392;2023-09-19T04:55:34;14.80;99.90
43679;DHT22;29279;50.858;4.392;2023-09-19T04:58:00;14.80;99.90
43679;DHT22;29279;50.858;4.392;2023-09-19T05:00:26;14.90;99.90
43679;DHT22;29279;50.858;4.392;2023-09-19T05:02:56;14.90;99.90
43679;DHT22;29279;50.858;4.392;2023-09-19T05:05:22;14.90;99.90
43679;DHT22;29279;50.858;4.392;2023-09-19T05:07:49;14.80;99.90
43679;DHT22;29279;50.858;4.392;2023-09-19T05:10:16;14.70;99.90
43679;DHT22;29279;50.858;4.392;2023-09-19T05:12:44;14.70;99.90
43679;DHT22;29279;50.858;4.392;2023-09-19T05:15:13;14.70;99.90
43679;DHT22;29279;50.858;4.392;2023-09-19T05:17:40;14.80;99.90
43679;DHT22;29279;50.858;4.392;2023-09-19T05:20:06;14.80;99.90
43679;DHT22;29279;50.858;4.392;2023-09-19T05:22:50;14.80;99.90
43679;DHT22;29279;50.858;4.392;2023-09-19T05:25:16;14.80;99.90
43679;DHT22;29279;50.858;4.392;2023-09-19T05:27:44;14.70;99.90
43679;DHT22;29279;50.858;4.392;2023-09-19T05:30:10;14.70;99.90
43679;DHT22;29279;50.858;4.392;2023-09-19T05:32:36;14.70;99.90
43679;DHT22;29279;50.858;4.392;2023-09-19T05:35:02;14.60;99.90
43679;DHT22;29279;50.858;4.392;2023-09-19T05:37:28;14.60;99.90
43679;DHT22;29279;50.858;4.392;2023-09-19T05:39:55;14.70;99.90
43679;DHT22;29279;50.858;4.392;2023-09-19T05:42:20;14.90;99.90
43679;DHT22;29279;50.858;4.392;2023-09-19T05:44:46;14.80;99.90
43679;DHT22;29279;50.858;4.392;2023-09-19T05:47:12;14.90;99.90
43679;DHT22;29279;50.858;4.392;2023-09-19T05:49:38;15.00;99.90
43679;DHT22;29279;50.858;4.392;2023-09-19T05:52:07;14.90;99.90
43679;DHT22;29279;50.858;4.392;2023-09-19T05:54:33;14.90;99.90
43679;DHT22;29279;50.858;4.392;2023-09-19T05:57:00;14.80;99.90
43679;DHT22;29279;50.858;4.392;2023-09-19T05:59:27;14.90;99.90
43679;DHT22;29279;50.858;4.392;2023-09-19T06:01:52;14.80;99.90
43679;DHT22;29279;50.858;4.392;2023-09-19T06:04:18;14.90;99.90
43679;DHT22;29279;50.858;4.392;2023-09-19T06:06:47;14.90;99.90
43679;DHT22;29279;50.858;4.392;2023-09-19T06:09:14;15.00;99.90
43679;DHT22;29279;50.858;4.392;2023-09-19T06:11:41;15.00;99.90
43679;DHT22;29279;50.858;4.392;2023-09-19T06:14:07;15.00;99.90
43679;DHT22;29279;50.858;4.392;2023-09-19T06:16:33;15.00;99.90
43679;DHT22;29279;50.858;4.392;2023-09-19T06:18:58;15.00;99.90
43679;DHT22;29279;50.858;4.392;2023-09-19T06:21:26;14.90;99.90
43679;DHT22;29279;50.858;4.392;2023-09-19T06:23:55;15.00;99.90
43679;DHT22;29279;50.858;4.392;2023-09-19T06:26:22;15.00;99.90
43679;DHT22;29279;50.858;4.392;2023-09-19T06:28:48;15.00;99.90
43679;DHT22;29279;50.858;4.392;2023-09-19T06:31:14;15.00;99.90
43679;DHT22;29279;50.858;4.392;2023-09-19T06:33:40;15.00;99.90
43679;DHT22;29279;50.858;4.392;2023-09-19T06:36:07;15.10;99.90
43679;DHT22;29279;50.858;4.392;2023-09-19T06:38:33;15.10;99.90
43679;DHT22;29279;50.858;4.392;2023-09-19T06:41:02;15.10;99.90
43679;DHT22;29279;50.858;4.392;2023-09-19T06:43:30;15.10;99.90
43679;DHT22;29279;50.858;4.392;2023-09-19T06:45:56;15.20;99.90
43679;DHT22;29279;50.858;4.392;2023-09-19T06:48:22;15.20;99.90
43679;DHT22;29279;50.858;4.392;2023-09-19T06:50:50;15.20;99.90
43679;DHT22;29279;50.858;4.392;2023-09-19T06:53:18;15.30;99.90
43679;DHT22;29279;50.858;4.392;2023-09-19T06:55:44;15.30;99.90
43679;DHT22;29279;50.858;4.392;2023-09-19T06:58:10;15.30;99.90
43679;DHT22;29279;50.858;4.392;2023-09-19T07:00:36;15.30;99.90
43679;DHT22;29279;50.858;4.392;2023-09-19T07:03:04;15.30;99.90
43679;DHT22;29279;50.858;4.392;2023-09-19T07:05:34;15.30;99.90
43679;DHT22;29279;50.858;4.392;2023-09-19T07:08:03;15.30;99.90
43679;DHT22;29279;50.858;4.392;2023-09-19T07:10:30;15.40;99.90
43679;DHT22;29279;50.858;4.392;2023-09-19T07:13:05;15.40;99.90
43679;DHT22;29279;50.858;4.392;2023-09-19T07:15:38;15.40;99.90
43679;DHT22;29279;50.858;4.392;2023-09-19T07:18:07;15.40;99.90
43679;DHT22;29279;50.858;4.392;2023-09-19T07:20:36;15.50;99.90
43679;DHT22;29279;50.858;4.392;2023-09-19T07:23:02;15.60;99.90
43679;DHT22;29279;50.858;4.392;2023-09-19T07:25:28;15.80;99.90
43679;DHT22;29279;50.858;4.392;2023-09-19T07:27:58;15.90;99.90
43679;DHT22;29279;50.858;4.392;2023-09-19T07:30:26;15.80;99.90
43679;DHT22;29279;50.858;4.392;2023-09-19T07:32:52;15.90;99.90
43679;DHT22;29279;50.858;4.392;2023-09-19T07:35:19;15.90;99.90
43679;DHT22;29279;50.858;4.392;2023-09-19T07:37:48;15.90;99.90
43679;DHT22;29279;50.858;4.392;2023-09-19T07:40:15;16.00;99.90
43679;DHT22;29279;50.858;4.392;2023-09-19T07:42:41;16.10;99.90
43679;DHT22;29279;50.858;4.392;2023-09-19T07:45:08;16.20;99.90
43679;DHT22;29279;50.858;4.392;2023-09-19T07:47:34;16.40;99.90
43679;DHT22;29279;50.858;4.392;2023-09-19T07:50:01;16.50;99.90
43679;DHT22;29279;50.858;4.392;2023-09-19T07:52:28;16.60;99.90
43679;DHT22;29279;50.858;4.392;2023-09-19T07:54:54;16.70;99.90
43679;DHT22;29279;50.858;4.392;2023-09-19T07:57:22;16.70;99.90
43679;DHT22;29279;50.858;4.392;2023-09-19T07:59:48;16.60;99.90
43679;DHT22;29279;50.858;4.392;2023-09-19T08:02:14;16.50;99.90
43679;DHT22;29279;50.858;4.392;2023-09-19T08:04:43;16.50;99.90
43679;DHT22;29279;50.858;4.392;2023-09-19T08:07:12;16.60;99.90
43679;DHT22;29279;50.858;4.392;2023-09-19T08:09:38;16.70;99.90
43679;DHT22;29279;50.858;4.392;2023-09-19T08:12:05;16.80;99.90
43679;DHT22;29279;50.858;4.392;2023-09-19T08:14:33;16.90;99.90
43679;DHT22;29279;50.858;4.392;2023-09-19T08:16:59;17.00;99.90
43679;DHT22;29279;50.858;4.392;2023-09-19T08:19:26;17.10;99.90
43679;DHT22;29279;50.858;4.392;2023-09-19T08:21:59;17.10;99.90
43679;DHT22;29279;50.858;4.392;2023-09-19T08:24:29;17.10;99.90
43679;DHT22;29279;50.858;4.392;2023-09-19T08:26:55;17.10;99.90
43679;DHT22;29279;50.858;4.392;2023-09-19T08:29:22;17.20;99.90
43679;DHT22;29279;50.858;4.392;2023-09-19T08:31:56;17.40;99.90
43679;DHT22;29279;50.858;4.392;2023-09-19T08:34:23;17.40;99.90
43679;DHT22;29279;50.858;4.392;2023-09-19T08:36:53;17.60;99.90
43679;DHT22;29279;50.858;4.392;2023-09-19T08:39:22;17.90;99.90
43679;DHT22;29279;50.858;4.392;2023-09-19T08:41:48;17.80;99.90
43679;DHT22;29279;50.858;4.392;2023-09-19T08:44:14;18.00;99.90
43679;DHT22;29279;50.858;4.392;2023-09-19T08:46:41;18.20;99.90
43679;DHT22;29279;50.858;4.392;2023-09-19T08:49:33;18.30;99.90
43679;DHT22;29279;50.858;4.392;2023-09-19T08:52:28;18.50;99.90
43679;DHT22;29279;50.858;4.392;2023-09-19T08:54:57;18.90;99.90
43679;DHT22;29279;50.858;4.392;2023-09-19T08:57:25;19.10;99.90
43679;DHT22;29279;50.858;4.392;2023-09-19T08:59:55;19.30;99.90
43679;DHT22;29279;50.858;4.392;2023-09-19T09:02:22;19.40;99.90
43679;DHT22;29279;50.858;4.392;2023-09-19T09:04:49;19.60;99.90
43679;DHT22;29279;50.858;4.392;2023-09-19T09:07:16;19.90;99.90
43679;DHT22;29279;50.858;4.392;2023-09-19T09:09:44;20.00;99.90
43679;DHT22;29279;50.858;4.392;2023-09-19T09:12:14;20.30;99.90
43679;DHT22;29279;50.858;4.392;2023-09-19T09:14:47;20.80;99.90
43679;DHT22;29279;50.858;4.392;2023-09-19T09:17:14;20.80;99.90
43679;DHT22;29279;50.858;4.392;2023-09-19T09:19:40;20.70;99.90
43679;DHT22;29279;50.858;4.392;2023-09-19T09:22:10;20.70;99.90
43679;DHT22;29279;50.858;4.392;2023-09-19T09:24:37;20.60;99.90
43679;DHT22;29279;50.858;4.392;2023-09-19T09:27:05;20.60;99.90
43679;DHT22;29279;50.858;4.392;2023-09-19T09:29:49;20.70;99.90
43679;DHT22;29279;50.858;4.392;2023-09-19T09:32:18;20.50;99.90
43679;DHT22;29279;50.858;4.392;2023-09-19T09:34:49;20.20;99.90
43679;DHT22;29279;50.858;4.392;2023-09-19T09:37:16;20.20;99.90
43679;DHT22;29279;50.858;4.392;2023-09-19T09:39:58;20.40;99.90
43679;DHT22;29279;50.858;4.392;2023-09-19T09:42:45;20.50;99.90
43679;DHT22;29279;50.858;4.392;2023-09-19T09:45:22;20.40;99.90
43679;DHT22;29279;50.858;4.392;2023-09-19T09:48:03;20.60;99.90
43679;DHT22;29279;50.858;4.392;2023-09-19T09:50:36;20.40;99.90
43679;DHT22;29279;50.858;4.392;2023-09-19T09:53:24;20.00;99.90
43679;DHT22;29279;50.858;4.392;2023-09-19T09:55:59;19.80;99.90
43679;DHT22;29279;50.858;4.392;2023-09-19T09:58:25;19.40;99.90
43679;DHT22;29279;50.858;4.392;2023-09-19T10:00:55;19.40;99.90
43679;DHT22;29279;50.858;4.392;2023-09-19T10:03:34;19.60;99.90
43679;DHT22;29279;50.858;4.392;2023-09-19T10:06:08;19.80;99.90
43679;DHT22;29279;50.858;4.392;2023-09-19T10:12:02;20.60;99.90
43679;DHT22;29279;50.858;4.392;2023-09-19T10:14:31;20.70;99.90
43679;DHT22;29279;50.858;4.392;2023-09-19T10:17:00;21.40;99.90
43679;DHT22;29279;50.858;4.392;2023-09-19T10:19:37;22.30;99.90
43679;DHT22;29279;50.858;4.392;2023-09-19T10:22:10;22.50;99.90
43679;DHT22;29279;50.858;4.392;2023-09-19T10:24:38;23.40;99.60
43679;DHT22;29279;50.858;4.392;2023-09-19T10:27:06;24.40;98.00
43679;DHT22;29279;50.858;4.392;2023-09-19T10:29:35;24.20;97.00
43679;DHT22;29279;50.858;4.392;2023-09-19T10:32:03;24.10;96.80
43679;DHT22;29279;50.858;4.392;2023-09-19T10:34:38;24.10;96.80
43679;DHT22;29279;50.858;4.392;2023-09-19T10:37:08;24.60;96.30
43679;DHT22;29279;50.858;4.392;2023-09-19T10:39:39;25.20;96.10
43679;DHT22;29279;50.858;4.392;2023-09-19T10:42:06;25.40;94.90
43679;DHT22;29279;50.858;4.392;2023-09-19T10:44:38;25.60;94.90
43679;DHT22;29279;50.858;4.392;2023-09-19T10:47:09;25.20;94.80
43679;DHT22;29279;50.858;4.392;2023-09-19T10:49:35;25.10;94.60
43679;DHT22;29279;50.858;4.392;2023-09-19T10:52:01;24.90;94.80
43679;DHT22;29279;50.858;4.392;2023-09-19T10:54:31;24.70;95.00
43679;DHT22;29279;50.858;4.392;2023-09-19T10:57:00;25.10;94.70
43679;DHT22;29279;50.858;4.392;2023-09-19T10:59:26;25.60;94.20
43679;DHT22;29279;50.858;4.392;2023-09-19T11:02:00;25.40;94.00
43679;DHT22;29279;50.858;4.392;2023-09-19T11:04:40;25.60;94.20
43679;DHT22;29279;50.858;4.392;2023-09-19T11:07:09;25.80;94.10
43679;DHT22;29279;50.858;4.392;2023-09-19T11:09:53;25.90;93.50
43679;DHT22;29279;50.858;4.392;2023-09-19T11:14:57;26.30;93.30
43679;DHT22;29279;50.858;4.392;2023-09-19T11:17:30;26.40;92.90
43679;DHT22;29279;50.858;4.392;2023-09-19T11:30:35;24.80;94.60
43679;DHT22;29279;50.858;4.392;2023-09-19T11:36:13;22.90;96.50
43679;DHT22;29279;50.858;4.392;2023-09-19T11:43:54;22.20;98.10
43679;DHT22;29279;50.858;4.392;2023-09-19T11:49:18;21.80;99.20
43679;DHT22;29279;50.858;4.392;2023-09-19T11:51:50;21.50;99.90
43679;DHT22;29279;50.858;4.392;2023-09-19T11:54:20;21.20;99.90
43679;DHT22;29279;50.858;4.392;2023-09-19T11:56:51;21.00;99.90
43679;DHT22;29279;50.858;4.392;2023-09-19T11:59:24;21.60;99.90
43679;DHT22;29279;50.858;4.392;2023-09-19T12:01:54;22.40;99.20
43679;DHT22;29279;50.858;4.392;2023-09-19T12:04:44;22.20;99.40
43679;DHT22;29279;50.858;4.392;2023-09-19T12:07:12;21.90;99.90
43679;DHT22;29279;50.858;4.392;2023-09-19T12:10:03;21.40;99.90
43679;DHT22;29279;50.858;4.392;2023-09-19T12:12:29;21.00;99.90
43679;DHT22;29279;50.858;4.392;2023-09-19T12:14:56;20.90;99.90
43679;DHT22;29279;50.858;4.392;2023-09-19T12:17:54;21.00;99.90
43679;DHT22;29279;50.858;4.392;2023-09-19T12:20:20;21.50;99.90
43679;DHT22;29279;50.858;4.392;2023-09-19T12:22:47;21.50;99.90
43679;DHT22;29279;50.858;4.392;2023-09-19T12:25:14;21.40;99.90
43679;DHT22;29279;50.858;4.392;2023-09-19T12:27:46;21.90;99.90
43679;DHT22;29279;50.858;4.392;2023-09-19T12:30:13;22.20;99.90
43679;DHT22;29279;50.858;4.392;2023-09-19T12:32:48;22.40;99.90
43679;DHT22;29279;50.858;4.392;2023-09-19T12:35:28;22.30;99.80
43679;DHT22;29279;50.858;4.392;2023-09-19T12:37:55;22.10;99.90
43679;DHT22;29279;50.858;4.392;2023-09-19T12:40:22;22.00;99.90
43679;DHT22;29279;50.858;4.392;2023-09-19T12:42:54;21.60;99.90
43679;DHT22;29279;50.858;4.392;2023-09-19T12:45:29;21.50;99.90
43679;DHT22;29279;50.858;4.392;2023-09-19T12:48:24;22.20;99.90
43679;DHT22;29279;50.858;4.392;2023-09-19T12:53:28;22.20;99.90
43679;DHT22;29279;50.858;4.392;2023-09-19T12:56:00;22.20;99.90
43679;DHT22;29279;50.858;4.392;2023-09-19T12:58:26;21.90;99.90
43679;DHT22;29279;50.858;4.392;2023-09-19T13:00:52;21.60;99.90
43679;DHT22;29279;50.858;4.392;2023-09-19T13:03:28;21.40;99.90
43679;DHT22;29279;50.858;4.392;2023-09-19T13:06:01;21.60;99.90
43679;DHT22;29279;50.858;4.392;2023-09-19T13:08:40;21.70;99.90
43679;DHT22;29279;50.858;4.392;2023-09-19T13:11:10;21.90;99.90
43679;DHT22;29279;50.858;4.392;2023-09-19T13:13:40;21.90;99.90
43679;DHT22;29279;50.858;4.392;2023-09-19T13:16:06;21.50;99.90
43679;DHT22;29279;50.858;4.392;2023-09-19T13:18:47;21.10;99.90
43679;DHT22;29279;50.858;4.392;2023-09-19T13:21:16;21.00;99.90
43679;DHT22;29279;50.858;4.392;2023-09-19T13:23:52;21.10;99.90
43679;DHT22;29279;50.858;4.392;2023-09-19T13:26:20;21.50;99.90
43679;DHT22;29279;50.858;4.392;2023-09-19T13:28:45;21.50;99.90
43679;DHT22;29279;50.858;4.392;2023-09-19T13:31:13;21.30;99.90
43679;DHT22;29279;50.858;4.392;2023-09-19T13:33:47;21.10;99.90
43679;DHT22;29279;50.858;4.392;2023-09-19T13:36:13;21.00;99.90
43679;DHT22;29279;50.858;4.392;2023-09-19T13:38:42;20.90;99.90
43679;DHT22;29279;50.858;4.392;2023-09-19T13:41:13;21.00;99.90
43679;DHT22;29279;50.858;4.392;2023-09-19T13:43:39;21.00;99.90
43679;DHT22;29279;50.858;4.392;2023-09-19T13:46:05;21.10;99.90
43679;DHT22;29279;50.858;4.392;2023-09-19T13:48:37;21.00;99.90
43679;DHT22;29279;50.858;4.392;2023-09-19T13:51:04;20.80;99.90
43679;DHT22;29279;50.858;4.392;2023-09-19T13:53:30;20.70;99.90
43679;DHT22;29279;50.858;4.392;2023-09-19T13:55:55;20.70;99.90
43679;DHT22;29279;50.858;4.392;2023-09-19T13:58:21;20.80;99.90
43679;DHT22;29279;50.858;4.392;2023-09-19T14:00:48;20.70;99.90
43679;DHT22;29279;50.858;4.392;2023-09-19T14:03:14;20.60;99.90
43679;DHT22;29279;50.858;4.392;2023-09-19T14:05:40;20.40;99.90
43679;DHT22;29279;50.858;4.392;2023-09-19T14:08:08;20.40;99.90
43679;DHT22;29279;50.858;4.392;2023-09-19T14:10:34;20.40;99.90
43679;DHT22;29279;50.858;4.392;2023-09-19T14:13:00;20.60;99.90
43679;DHT22;29279;50.858;4.392;2023-09-19T14:15:27;20.50;99.90
43679;DHT22;29279;50.858;4.392;2023-09-19T14:17:57;20.30;99.90
43679;DHT22;29279;50.858;4.392;2023-09-19T14:20:22;20.40;99.90
43679;DHT22;29279;50.858;4.392;2023-09-19T14:22:48;20.70;99.90
43679;DHT22;29279;50.858;4.392;2023-09-19T14:25:14;20.90;99.90
43679;DHT22;29279;50.858;4.392;2023-09-19T14:27:40;20.90;99.90
43679;DHT22;29279;50.858;4.392;2023-09-19T14:30:07;21.00;99.90
43679;DHT22;29279;50.858;4.392;2023-09-19T14:32:34;21.00;99.90
43679;DHT22;29279;50.858;4.392;2023-09-19T14:35:02;20.90;99.90
43679;DHT22;29279;50.858;4.392;2023-09-19T14:37:27;20.80;99.90
43679;DHT22;29279;50.858;4.392;2023-09-19T14:39:53;21.60;99.90
43679;DHT22;29279;50.858;4.392;2023-09-19T14:42:19;22.10;99.90
43679;DHT22;29279;50.858;4.392;2023-09-19T14:44:45;22.90;99.90
43679;DHT22;29279;50.858;4.392;2023-09-19T14:47:13;22.30;99.90
43679;DHT22;29279;50.858;4.392;2023-09-19T14:49:39;21.80;99.90
43679;DHT22;29279;50.858;4.392;2023-09-19T14:52:09;21.40;99.90
43679;DHT22;29279;50.858;4.392;2023-09-19T14:54:36;21.30;99.90
43679;DHT22;29279;50.858;4.392;2023-09-19T14:57:03;21.20;99.90
43679;DHT22;29279;50.858;4.392;2023-09-19T14:59:33;21.10;99.90
43679;DHT22;29279;50.858;4.392;2023-09-19T15:02:05;21.00;99.90
43679;DHT22;29279;50.858;4.392;2023-09-19T15:04:30;20.80;99.90
43679;DHT22;29279;50.858;4.392;2023-09-19T15:06:56;20.70;99.90
43679;DHT22;29279;50.858;4.392;2023-09-19T15:09:23;20.70;99.90
43679;DHT22;29279;50.858;4.392;2023-09-19T15:11:55;20.60;99.90
43679;DHT22;29279;50.858;4.392;2023-09-19T15:14:24;20.50;99.90
43679;DHT22;29279;50.858;4.392;2023-09-19T15:16:50;20.40;99.90
43679;DHT22;29279;50.858;4.392;2023-09-19T15:19:16;20.40;99.90
43679;DHT22;29279;50.858;4.392;2023-09-19T15:21:43;20.20;99.90
43679;DHT22;29279;50.858;4.392;2023-09-19T15:24:09;20.10;99.90
43679;DHT22;29279;50.858;4.392;2023-09-19T15:26:36;20.00;99.90
43679;DHT22;29279;50.858;4.392;2023-09-19T15:29:08;20.00;99.90
43679;DHT22;29279;50.858;4.392;2023-09-19T15:31:35;20.00;99.90
43679;DHT22;29279;50.858;4.392;2023-09-19T15:34:02;20.00;99.90
43679;DHT22;29279;50.858;4.392;2023-09-19T15:36:28;20.00;99.90
43679;DHT22;29279;50.858;4.392;2023-09-19T15:39:00;19.80;99.90
43679;DHT22;29279;50.858;4.392;2023-09-19T15:41:37;19.80;99.90
43679;DHT22;29279;50.858;4.392;2023-09-19T15:44:11;19.80;99.90
43679;DHT22;29279;50.858;4.392;2023-09-19T15:46:37;19.80;99.90
43679;DHT22;29279;50.858;4.392;2023-09-19T15:49:03;19.90;99.90
43679;DHT22;29279;50.858;4.392;2023-09-19T15:51:29;19.90;99.90
43679;DHT22;29279;50.858;4.392;2023-09-19T15:53:55;19.80;99.90
43679;DHT22;29279;50.858;4.392;2023-09-19T15:56:22;19.60;99.90
43679;DHT22;29279;50.858;4.392;2023-09-19T15:58:49;19.50;99.90
43679;DHT22;29279;50.858;4.392;2023-09-19T16:01:15;19.60;99.90
43679;DHT22;29279;50.858;4.392;2023-09-19T16:03:49;19.60;99.90
43679;DHT22;29279;50.858;4.392;2023-09-19T16:06:16;19.60;99.90
43679;DHT22;29279;50.858;4.392;2023-09-19T16:08:47;19.60;99.90
43679;DHT22;29279;50.858;4.392;2023-09-19T16:11:13;19.70;99.90
43679;DHT22;29279;50.858;4.392;2023-09-19T16:13:40;19.60;99.90
43679;DHT22;29279;50.858;4.392;2023-09-19T16:16:07;19.60;99.90
43679;DHT22;29279;50.858;4.392;2023-09-19T16:18:34;19.60;99.90
43679;DHT22;29279;50.858;4.392;2023-09-19T16:21:03;19.60;99.90
43679;DHT22;29279;50.858;4.392;2023-09-19T16:23:32;19.60;99.90
43679;DHT22;29279;50.858;4.392;2023-09-19T16:26:06;19.50;99.90
43679;DHT22;29279;50.858;4.392;2023-09-19T16:28:36;19.60;99.90
43679;DHT22;29279;50.858;4.392;2023-09-19T16:31:06;19.60;99.90
43679;DHT22;29279;50.858;4.392;2023-09-19T16:33:33;19.40;99.90
43679;DHT22;29279;50.858;4.392;2023-09-19T16:35:59;19.40;99.90